Glenrock, Wyoming
Current Conditions -  °F | °C
As of 2:53 AM on Monday 26 Jan 2015 (Local Time) from KDGW Reporting Station
Clear Clear  
Wind Chill: 34°   Ceiling: Unl
Heat Index: 40°   Visibility: 10mi
Dew Point: 28°   Wind: 8mph
Humidity: 63%   Direction: 320°NW
Pressure: 30.18"   Gusts: NA
Location:  42.86°N, 105.87°W
Report Text: KDGW 260953Z AUTO 32007KT 10SM CLR 04/M02 A3018 RMK AO2 SLP207 T00441022
Loading
Personal Weather Stations






























Interactive Weather Map New forecast layout! Learn more

10-Day Weather Forecast

Advertisements
Track Severe Weather on mobile